sensor_id;sensor_type;location;lat;lon;timestamp;P1;durP1;ratioP1;P2;durP2;ratioP2
68144;SDS011;55400;51.824;-0.196;2023-07-13T00:01:31;2.00;;;1.40;;
68144;SDS011;55400;51.824;-0.196;2023-07-13T00:05:31;5.10;;;1.40;;
68144;SDS011;55400;51.824;-0.196;2023-07-13T00:09:31;3.90;;;1.50;;
68144;SDS011;55400;51.824;-0.196;2023-07-13T00:17:31;2.80;;;1.20;;
68144;SDS011;55400;51.824;-0.196;2023-07-13T00:21:32;1.90;;;1.40;;
68144;SDS011;55400;51.824;-0.196;2023-07-13T00:25:31;2.30;;;1.40;;
68144;SDS011;55400;51.824;-0.196;2023-07-13T00:29:31;3.10;;;1.60;;
68144;SDS011;55400;51.824;-0.196;2023-07-13T00:33:31;2.70;;;1.10;;
68144;SDS011;55400;51.824;-0.196;2023-07-13T00:37:31;2.60;;;1.40;;
68144;SDS011;55400;51.824;-0.196;2023-07-13T00:41:31;1.90;;;1.40;;
68144;SDS011;55400;51.824;-0.196;2023-07-13T00:49:33;2.30;;;1.40;;
68144;SDS011;55400;51.824;-0.196;2023-07-13T00:53:32;1.50;;;1.20;;
68144;SDS011;55400;51.824;-0.196;2023-07-13T00:57:31;3.30;;;1.60;;
68144;SDS011;55400;51.824;-0.196;2023-07-13T01:01:31;1.90;;;1.30;;
68144;SDS011;55400;51.824;-0.196;2023-07-13T01:05:33;3.70;;;1.40;;
68144;SDS011;55400;51.824;-0.196;2023-07-13T01:13:31;5.10;;;1.60;;
68144;SDS011;55400;51.824;-0.196;2023-07-13T01:17:33;3.20;;;1.50;;
68144;SDS011;55400;51.824;-0.196;2023-07-13T01:21:32;2.40;;;1.40;;
68144;SDS011;55400;51.824;-0.196;2023-07-13T01:25:32;4.10;;;1.50;;
68144;SDS011;55400;51.824;-0.196;2023-07-13T01:29:34;4.40;;;1.50;;
68144;SDS011;55400;51.824;-0.196;2023-07-13T01:33:31;2.60;;;1.30;;
68144;SDS011;55400;51.824;-0.196;2023-07-13T01:37:32;3.00;;;1.40;;
68144;SDS011;55400;51.824;-0.196;2023-07-13T01:41:31;5.50;;;1.50;;
68144;SDS011;55400;51.824;-0.196;2023-07-13T01:45:32;4.90;;;1.50;;
68144;SDS011;55400;51.824;-0.196;2023-07-13T01:49:32;5.90;;;1.40;;
68144;SDS011;55400;51.824;-0.196;2023-07-13T01:53:31;2.60;;;1.50;;
68144;SDS011;55400;51.824;-0.196;2023-07-13T01:57:31;2.60;;;1.60;;
68144;SDS011;55400;51.824;-0.196;2023-07-13T02:01:31;5.00;;;1.50;;
68144;SDS011;55400;51.824;-0.196;2023-07-13T02:05:32;4.90;;;1.50;;
68144;SDS011;55400;51.824;-0.196;2023-07-13T02:09:32;4.50;;;1.70;;
68144;SDS011;55400;51.824;-0.196;2023-07-13T02:13:31;2.80;;;1.50;;
68144;SDS011;55400;51.824;-0.196;2023-07-13T02:17:32;2.70;;;1.20;;
68144;SDS011;55400;51.824;-0.196;2023-07-13T02:21:31;3.60;;;1.50;;
68144;SDS011;55400;51.824;-0.196;2023-07-13T02:25:32;2.40;;;1.50;;
68144;SDS011;55400;51.824;-0.196;2023-07-13T02:29:31;1.80;;;1.20;;
68144;SDS011;55400;51.824;-0.196;2023-07-13T02:33:32;5.60;;;1.50;;
68144;SDS011;55400;51.824;-0.196;2023-07-13T02:37:32;3.40;;;1.40;;
68144;SDS011;55400;51.824;-0.196;2023-07-13T02:41:32;4.10;;;1.50;;
68144;SDS011;55400;51.824;-0.196;2023-07-13T02:45:32;3.20;;;1.50;;
68144;SDS011;55400;51.824;-0.196;2023-07-13T02:49:32;3.30;;;1.40;;
68144;SDS011;55400;51.824;-0.196;2023-07-13T02:53:32;3.70;;;1.20;;
68144;SDS011;55400;51.824;-0.196;2023-07-13T02:57:32;3.70;;;1.70;;
68144;SDS011;55400;51.824;-0.196;2023-07-13T03:01:32;4.30;;;1.40;;
68144;SDS011;55400;51.824;-0.196;2023-07-13T03:05:32;1.60;;;1.40;;
68144;SDS011;55400;51.824;-0.196;2023-07-13T03:09:33;2.30;;;1.40;;
68144;SDS011;55400;51.824;-0.196;2023-07-13T03:13:32;3.20;;;1.60;;
68144;SDS011;55400;51.824;-0.196;2023-07-13T03:17:32;2.80;;;1.30;;
68144;SDS011;55400;51.824;-0.196;2023-07-13T03:21:32;1.70;;;1.30;;
68144;SDS011;55400;51.824;-0.196;2023-07-13T03:25:32;3.40;;;1.40;;
68144;SDS011;55400;51.824;-0.196;2023-07-13T03:29:32;2.80;;;1.50;;
68144;SDS011;55400;51.824;-0.196;2023-07-13T03:33:32;5.00;;;1.70;;
68144;SDS011;55400;51.824;-0.196;2023-07-13T03:37:32;2.30;;;1.30;;
68144;SDS011;55400;51.824;-0.196;2023-07-13T03:41:32;2.00;;;1.30;;
68144;SDS011;55400;51.824;-0.196;2023-07-13T03:45:32;2.20;;;1.30;;
68144;SDS011;55400;51.824;-0.196;2023-07-13T03:49:32;3.40;;;1.70;;
68144;SDS011;55400;51.824;-0.196;2023-07-13T03:53:32;1.80;;;1.30;;
68144;SDS011;55400;51.824;-0.196;2023-07-13T03:57:32;1.60;;;1.20;;
68144;SDS011;55400;51.824;-0.196;2023-07-13T04:01:32;2.90;;;1.40;;
68144;SDS011;55400;51.824;-0.196;2023-07-13T04:05:32;3.20;;;1.60;;
68144;SDS011;55400;51.824;-0.196;2023-07-13T04:09:32;4.00;;;1.60;;
68144;SDS011;55400;51.824;-0.196;2023-07-13T04:13:32;2.60;;;1.40;;
68144;SDS011;55400;51.824;-0.196;2023-07-13T04:17:32;2.60;;;1.40;;
68144;SDS011;55400;51.824;-0.196;2023-07-13T04:21:32;2.60;;;1.10;;
68144;SDS011;55400;51.824;-0.196;2023-07-13T04:25:32;2.60;;;1.30;;
68144;SDS011;55400;51.824;-0.196;2023-07-13T04:29:32;1.40;;;1.20;;
68144;SDS011;55400;51.824;-0.196;2023-07-13T04:33:32;2.70;;;1.10;;
68144;SDS011;55400;51.824;-0.196;2023-07-13T04:37:32;2.10;;;1.30;;
68144;SDS011;55400;51.824;-0.196;2023-07-13T04:41:32;3.20;;;1.40;;
68144;SDS011;55400;51.824;-0.196;2023-07-13T04:45:35;2.70;;;1.50;;
68144;SDS011;55400;51.824;-0.196;2023-07-13T04:49:32;2.10;;;1.50;;
68144;SDS011;55400;51.824;-0.196;2023-07-13T04:53:33;1.80;;;1.40;;
68144;SDS011;55400;51.824;-0.196;2023-07-13T05:01:32;3.70;;;1.50;;
68144;SDS011;55400;51.824;-0.196;2023-07-13T05:05:32;3.80;;;1.60;;
68144;SDS011;55400;51.824;-0.196;2023-07-13T05:09:32;2.80;;;1.80;;
68144;SDS011;55400;51.824;-0.196;2023-07-13T05:13:32;3.60;;;1.50;;
68144;SDS011;55400;51.824;-0.196;2023-07-13T05:17:32;2.10;;;1.50;;
68144;SDS011;55400;51.824;-0.196;2023-07-13T05:21:32;2.00;;;1.30;;
68144;SDS011;55400;51.824;-0.196;2023-07-13T05:25:32;3.30;;;1.50;;
68144;SDS011;55400;51.824;-0.196;2023-07-13T05:29:32;3.00;;;1.20;;
68144;SDS011;55400;51.824;-0.196;2023-07-13T05:33:33;5.40;;;1.70;;
68144;SDS011;55400;51.824;-0.196;2023-07-13T05:37:32;2.50;;;1.50;;
68144;SDS011;55400;51.824;-0.196;2023-07-13T05:41:32;2.00;;;1.30;;
68144;SDS011;55400;51.824;-0.196;2023-07-13T05:45:32;2.70;;;1.40;;
68144;SDS011;55400;51.824;-0.196;2023-07-13T05:53:33;4.40;;;1.40;;
68144;SDS011;55400;51.824;-0.196;2023-07-13T05:57:32;3.20;;;1.40;;
68144;SDS011;55400;51.824;-0.196;2023-07-13T06:01:32;3.70;;;1.80;;
68144;SDS011;55400;51.824;-0.196;2023-07-13T06:05:32;2.30;;;1.30;;
68144;SDS011;55400;51.824;-0.196;2023-07-13T06:09:32;3.20;;;1.50;;
68144;SDS011;55400;51.824;-0.196;2023-07-13T06:13:32;2.80;;;1.50;;
68144;SDS011;55400;51.824;-0.196;2023-07-13T06:17:32;1.90;;;1.40;;
68144;SDS011;55400;51.824;-0.196;2023-07-13T06:21:32;5.00;;;1.50;;
68144;SDS011;55400;51.824;-0.196;2023-07-13T06:25:32;3.20;;;1.50;;
68144;SDS011;55400;51.824;-0.196;2023-07-13T06:29:32;5.50;;;1.60;;
68144;SDS011;55400;51.824;-0.196;2023-07-13T06:33:33;4.80;;;1.50;;
68144;SDS011;55400;51.824;-0.196;2023-07-13T06:37:32;1.50;;;1.40;;
68144;SDS011;55400;51.824;-0.196;2023-07-13T06:41:32;3.50;;;1.80;;
68144;SDS011;55400;51.824;-0.196;2023-07-13T06:45:40;2.40;;;1.40;;
68144;SDS011;55400;51.824;-0.196;2023-07-13T06:49:32;2.30;;;1.40;;
68144;SDS011;55400;51.824;-0.196;2023-07-13T06:53:32;1.90;;;1.20;;
68144;SDS011;55400;51.824;-0.196;2023-07-13T06:57:32;3.80;;;1.40;;
68144;SDS011;55400;51.824;-0.196;2023-07-13T07:01:32;2.90;;;1.40;;
68144;SDS011;55400;51.824;-0.196;2023-07-13T07:05:33;3.60;;;1.60;;
68144;SDS011;55400;51.824;-0.196;2023-07-13T07:09:32;4.10;;;1.30;;
68144;SDS011;55400;51.824;-0.196;2023-07-13T07:13:32;3.10;;;1.60;;
68144;SDS011;55400;51.824;-0.196;2023-07-13T07:18:23;2.90;;;1.40;;
68144;SDS011;55400;51.824;-0.196;2023-07-13T07:21:32;2.10;;;1.20;;
68144;SDS011;55400;51.824;-0.196;2023-07-13T07:26:29;4.20;;;1.70;;
68144;SDS011;55400;51.824;-0.196;2023-07-13T07:29:33;1.30;;;1.20;;
68144;SDS011;55400;51.824;-0.196;2023-07-13T07:33:33;4.50;;;1.50;;
68144;SDS011;55400;51.824;-0.196;2023-07-13T07:37:56;2.20;;;1.40;;
68144;SDS011;55400;51.824;-0.196;2023-07-13T07:41:54;2.00;;;1.30;;
68144;SDS011;55400;51.824;-0.196;2023-07-13T07:45:33;1.50;;;1.30;;
68144;SDS011;55400;51.824;-0.196;2023-07-13T07:50:21;2.10;;;1.40;;
68144;SDS011;55400;51.824;-0.196;2023-07-13T07:53:33;1.70;;;1.20;;
68144;SDS011;55400;51.824;-0.196;2023-07-13T07:57:33;2.50;;;1.40;;
68144;SDS011;55400;51.824;-0.196;2023-07-13T08:01:33;2.20;;;1.50;;
68144;SDS011;55400;51.824;-0.196;2023-07-13T08:05:35;1.30;;;1.20;;
68144;SDS011;55400;51.824;-0.196;2023-07-13T08:09:33;2.20;;;1.40;;
68144;SDS011;55400;51.824;-0.196;2023-07-13T08:13:33;2.10;;;1.60;;
68144;SDS011;55400;51.824;-0.196;2023-07-13T08:17:32;1.30;;;1.10;;
68144;SDS011;55400;51.824;-0.196;2023-07-13T08:21:32;2.30;;;1.50;;
68144;SDS011;55400;51.824;-0.196;2023-07-13T08:25:33;3.90;;;1.30;;
68144;SDS011;55400;51.824;-0.196;2023-07-13T08:29:32;1.90;;;1.60;;
68144;SDS011;55400;51.824;-0.196;2023-07-13T08:33:34;2.00;;;1.20;;
68144;SDS011;55400;51.824;-0.196;2023-07-13T08:37:33;2.20;;;1.50;;
68144;SDS011;55400;51.824;-0.196;2023-07-13T08:41:33;1.20;;;1.10;;
68144;SDS011;55400;51.824;-0.196;2023-07-13T08:45:43;2.00;;;1.40;;
68144;SDS011;55400;51.824;-0.196;2023-07-13T08:49:33;5.50;;;1.30;;
68144;SDS011;55400;51.824;-0.196;2023-07-13T08:53:36;1.50;;;1.20;;
68144;SDS011;55400;51.824;-0.196;2023-07-13T08:57:34;2.20;;;1.50;;
68144;SDS011;55400;51.824;-0.196;2023-07-13T09:01:49;3.40;;;1.50;;
68144;SDS011;55400;51.824;-0.196;2023-07-13T09:05:38;2.40;;;1.70;;
68144;SDS011;55400;51.824;-0.196;2023-07-13T09:09:44;4.60;;;1.70;;
68144;SDS011;55400;51.824;-0.196;2023-07-13T09:13:37;3.60;;;1.50;;
68144;SDS011;55400;51.824;-0.196;2023-07-13T09:17:39;1.50;;;1.20;;
68144;SDS011;55400;51.824;-0.196;2023-07-13T09:21:36;1.50;;;1.20;;
68144;SDS011;55400;51.824;-0.196;2023-07-13T09:25:34;3.20;;;1.70;;
68144;SDS011;55400;51.824;-0.196;2023-07-13T09:29:34;4.70;;;1.50;;
68144;SDS011;55400;51.824;-0.196;2023-07-13T09:33:33;2.20;;;1.40;;
68144;SDS011;55400;51.824;-0.196;2023-07-13T09:37:34;2.80;;;1.50;;
68144;SDS011;55400;51.824;-0.196;2023-07-13T09:41:39;1.80;;;1.40;;
68144;SDS011;55400;51.824;-0.196;2023-07-13T09:45:34;2.70;;;1.40;;
68144;SDS011;55400;51.824;-0.196;2023-07-13T09:53:33;2.50;;;1.40;;
68144;SDS011;55400;51.824;-0.196;2023-07-13T10:01:35;2.10;;;1.40;;
68144;SDS011;55400;51.824;-0.196;2023-07-13T10:05:42;2.80;;;1.20;;
68144;SDS011;55400;51.824;-0.196;2023-07-13T10:09:33;2.60;;;1.40;;
68144;SDS011;55400;51.824;-0.196;2023-07-13T10:13:35;1.70;;;1.30;;
68144;SDS011;55400;51.824;-0.196;2023-07-13T10:17:34;1.30;;;1.10;;
68144;SDS011;55400;51.824;-0.196;2023-07-13T10:21:37;2.40;;;1.10;;
68144;SDS011;55400;51.824;-0.196;2023-07-13T10:25:37;1.30;;;1.20;;
68144;SDS011;55400;51.824;-0.196;2023-07-13T10:29:37;2.30;;;1.20;;
68144;SDS011;55400;51.824;-0.196;2023-07-13T10:33:33;2.10;;;1.50;;
68144;SDS011;55400;51.824;-0.196;2023-07-13T10:37:40;3.30;;;1.20;;
68144;SDS011;55400;51.824;-0.196;2023-07-13T10:41:38;1.90;;;1.40;;
68144;SDS011;55400;51.824;-0.196;2023-07-13T10:45:35;2.80;;;1.10;;
68144;SDS011;55400;51.824;-0.196;2023-07-13T10:49:34;2.50;;;1.30;;
68144;SDS011;55400;51.824;-0.196;2023-07-13T10:53:34;3.30;;;1.20;;
68144;SDS011;55400;51.824;-0.196;2023-07-13T10:57:42;2.10;;;1.30;;
68144;SDS011;55400;51.824;-0.196;2023-07-13T11:01:40;3.20;;;1.10;;
68144;SDS011;55400;51.824;-0.196;2023-07-13T11:05:33;1.70;;;1.20;;
68144;SDS011;55400;51.824;-0.196;2023-07-13T11:09:36;1.80;;;0.90;;
68144;SDS011;55400;51.824;-0.196;2023-07-13T11:13:37;1.20;;;1.10;;
68144;SDS011;55400;51.824;-0.196;2023-07-13T11:17:36;1.60;;;1.00;;
68144;SDS011;55400;51.824;-0.196;2023-07-13T11:21:33;2.60;;;1.30;;
68144;SDS011;55400;51.824;-0.196;2023-07-13T11:25:35;1.30;;;1.00;;
68144;SDS011;55400;51.824;-0.196;2023-07-13T11:29:37;1.10;;;1.00;;
68144;SDS011;55400;51.824;-0.196;2023-07-13T11:33:49;1.60;;;1.10;;
68144;SDS011;55400;51.824;-0.196;2023-07-13T11:37:33;1.70;;;1.10;;
68144;SDS011;55400;51.824;-0.196;2023-07-13T11:41:37;1.20;;;1.10;;
68144;SDS011;55400;51.824;-0.196;2023-07-13T11:45:33;3.30;;;1.10;;
68144;SDS011;55400;51.824;-0.196;2023-07-13T11:49:41;4.10;;;1.40;;
68144;SDS011;55400;51.824;-0.196;2023-07-13T11:53:38;2.70;;;1.70;;
68144;SDS011;55400;51.824;-0.196;2023-07-13T11:57:37;2.70;;;1.40;;
68144;SDS011;55400;51.824;-0.196;2023-07-13T12:01:35;1.80;;;1.30;;
68144;SDS011;55400;51.824;-0.196;2023-07-13T12:05:33;1.60;;;1.30;;
68144;SDS011;55400;51.824;-0.196;2023-07-13T12:09:34;1.00;;;0.90;;
68144;SDS011;55400;51.824;-0.196;2023-07-13T12:13:36;5.30;;;1.10;;
68144;SDS011;55400;51.824;-0.196;2023-07-13T12:17:35;1.40;;;1.10;;
68144;SDS011;55400;51.824;-0.196;2023-07-13T12:21:38;1.20;;;0.90;;
68144;SDS011;55400;51.824;-0.196;2023-07-13T12:25:33;2.10;;;1.10;;
68144;SDS011;55400;51.824;-0.196;2023-07-13T12:29:33;3.00;;;1.10;;
68144;SDS011;55400;51.824;-0.196;2023-07-13T12:33:34;1.70;;;1.00;;
68144;SDS011;55400;51.824;-0.196;2023-07-13T12:37:34;1.20;;;1.10;;
68144;SDS011;55400;51.824;-0.196;2023-07-13T12:41:33;2.60;;;1.30;;
68144;SDS011;55400;51.824;-0.196;2023-07-13T12:45:33;1.50;;;1.10;;
68144;SDS011;55400;51.824;-0.196;2023-07-13T12:49:33;2.00;;;1.20;;
68144;SDS011;55400;51.824;-0.196;2023-07-13T12:53:41;2.10;;;1.00;;
68144;SDS011;55400;51.824;-0.196;2023-07-13T12:57:38;2.30;;;1.40;;
68144;SDS011;55400;51.824;-0.196;2023-07-13T13:01:35;2.80;;;1.50;;
68144;SDS011;55400;51.824;-0.196;2023-07-13T13:05:34;1.80;;;1.30;;
68144;SDS011;55400;51.824;-0.196;2023-07-13T13:09:33;1.40;;;1.30;;
68144;SDS011;55400;51.824;-0.196;2023-07-13T13:13:33;1.50;;;1.20;;
68144;SDS011;55400;51.824;-0.196;2023-07-13T13:17:34;1.20;;;1.10;;
68144;SDS011;55400;51.824;-0.196;2023-07-13T13:21:33;1.60;;;1.20;;
68144;SDS011;55400;51.824;-0.196;2023-07-13T13:25:33;1.80;;;1.10;;
68144;SDS011;55400;51.824;-0.196;2023-07-13T13:29:36;1.60;;;1.30;;
68144;SDS011;55400;51.824;-0.196;2023-07-13T13:33:33;1.30;;;1.20;;
68144;SDS011;55400;51.824;-0.196;2023-07-13T13:37:33;1.30;;;1.00;;
68144;SDS011;55400;51.824;-0.196;2023-07-13T13:41:33;2.10;;;1.30;;
68144;SDS011;55400;51.824;-0.196;2023-07-13T13:45:33;1.50;;;1.30;;
68144;SDS011;55400;51.824;-0.196;2023-07-13T13:49:33;4.20;;;1.10;;
68144;SDS011;55400;51.824;-0.196;2023-07-13T13:53:34;1.90;;;1.10;;
68144;SDS011;55400;51.824;-0.196;2023-07-13T13:57:33;1.10;;;1.00;;
68144;SDS011;55400;51.824;-0.196;2023-07-13T14:01:34;1.70;;;1.20;;
68144;SDS011;55400;51.824;-0.196;2023-07-13T14:05:34;1.60;;;0.80;;
68144;SDS011;55400;51.824;-0.196;2023-07-13T14:09:34;1.40;;;0.80;;
68144;SDS011;55400;51.824;-0.196;2023-07-13T14:13:37;1.50;;;1.00;;
68144;SDS011;55400;51.824;-0.196;2023-07-13T14:17:34;1.10;;;0.90;;
68144;SDS011;55400;51.824;-0.196;2023-07-13T14:21:34;0.90;;;0.60;;
68144;SDS011;55400;51.824;-0.196;2023-07-13T14:25:34;1.40;;;1.00;;
68144;SDS011;55400;51.824;-0.196;2023-07-13T14:30:39;unknown;;;unknown;;
68144;SDS011;55400;51.824;-0.196;2023-07-13T14:33:55;unknown;;;unknown;;
68144;SDS011;55400;51.824;-0.196;2023-07-13T14:37:55;1.60;;;1.00;;
68144;SDS011;55400;51.824;-0.196;2023-07-13T14:41:56;1.20;;;1.10;;
68144;SDS011;55400;51.824;-0.196;2023-07-13T14:45:55;1.20;;;1.00;;
68144;SDS011;55400;51.824;-0.196;2023-07-13T14:49:55;2.00;;;1.40;;
68144;SDS011;55400;51.824;-0.196;2023-07-13T14:53:55;2.90;;;0.80;;
68144;SDS011;55400;51.824;-0.196;2023-07-13T14:57:55;1.20;;;1.00;;
68144;SDS011;55400;51.824;-0.196;2023-07-13T15:01:55;1.60;;;0.90;;
68144;SDS011;55400;51.824;-0.196;2023-07-13T15:09:55;1.10;;;0.90;;
68144;SDS011;55400;51.824;-0.196;2023-07-13T15:13:55;1.80;;;0.80;;
68144;SDS011;55400;51.824;-0.196;2023-07-13T15:17:55;1.20;;;1.00;;
68144;SDS011;55400;51.824;-0.196;2023-07-13T15:21:55;1.30;;;1.00;;
68144;SDS011;55400;51.824;-0.196;2023-07-13T15:25:55;4.50;;;0.90;;
68144;SDS011;55400;51.824;-0.196;2023-07-13T15:29:55;1.80;;;0.80;;
68144;SDS011;55400;51.824;-0.196;2023-07-13T15:33:56;0.90;;;0.70;;
68144;SDS011;55400;51.824;-0.196;2023-07-13T15:37:55;1.10;;;1.00;;
68144;SDS011;55400;51.824;-0.196;2023-07-13T15:41:55;1.20;;;1.00;;
68144;SDS011;55400;51.824;-0.196;2023-07-13T15:45:55;1.10;;;0.90;;
68144;SDS011;55400;51.824;-0.196;2023-07-13T15:49:55;3.40;;;1.10;;
68144;SDS011;55400;51.824;-0.196;2023-07-13T15:53:58;1.30;;;0.80;;
68144;SDS011;55400;51.824;-0.196;2023-07-13T15:57:55;1.40;;;0.80;;
68144;SDS011;55400;51.824;-0.196;2023-07-13T16:01:55;1.00;;;0.80;;
68144;SDS011;55400;51.824;-0.196;2023-07-13T16:05:55;1.30;;;0.90;;
68144;SDS011;55400;51.824;-0.196;2023-07-13T16:09:55;2.00;;;1.00;;
68144;SDS011;55400;51.824;-0.196;2023-07-13T16:13:55;1.30;;;0.90;;
68144;SDS011;55400;51.824;-0.196;2023-07-13T16:17:55;1.70;;;1.20;;
68144;SDS011;55400;51.824;-0.196;2023-07-13T16:21:55;1.30;;;1.00;;
68144;SDS011;55400;51.824;-0.196;2023-07-13T16:25:55;1.60;;;1.00;;
68144;SDS011;55400;51.824;-0.196;2023-07-13T16:30:20;2.60;;;1.10;;
68144;SDS011;55400;51.824;-0.196;2023-07-13T16:35:39;1.60;;;1.20;;
68144;SDS011;55400;51.824;-0.196;2023-07-13T16:37:55;1.60;;;1.20;;
68144;SDS011;55400;51.824;-0.196;2023-07-13T16:41:58;1.50;;;1.30;;
68144;SDS011;55400;51.824;-0.196;2023-07-13T16:45:57;1.40;;;1.10;;
68144;SDS011;55400;51.824;-0.196;2023-07-13T16:49:55;2.50;;;1.20;;
68144;SDS011;55400;51.824;-0.196;2023-07-13T16:53:56;2.50;;;1.40;;
68144;SDS011;55400;51.824;-0.196;2023-07-13T16:57:57;2.40;;;1.40;;
68144;SDS011;55400;51.824;-0.196;2023-07-13T17:01:56;2.20;;;1.10;;
68144;SDS011;55400;51.824;-0.196;2023-07-13T17:05:56;2.80;;;1.20;;
68144;SDS011;55400;51.824;-0.196;2023-07-13T17:09:55;1.60;;;0.90;;
68144;SDS011;55400;51.824;-0.196;2023-07-13T17:13:55;1.60;;;1.00;;
68144;SDS011;55400;51.824;-0.196;2023-07-13T17:17:55;1.30;;;0.90;;
68144;SDS011;55400;51.824;-0.196;2023-07-13T17:21:55;1.00;;;0.80;;
68144;SDS011;55400;51.824;-0.196;2023-07-13T17:25:55;1.40;;;1.00;;
68144;SDS011;55400;51.824;-0.196;2023-07-13T17:29:55;1.50;;;0.90;;
68144;SDS011;55400;51.824;-0.196;2023-07-13T17:33:55;1.20;;;0.90;;
68144;SDS011;55400;51.824;-0.196;2023-07-13T17:37:57;0.70;;;0.60;;
68144;SDS011;55400;51.824;-0.196;2023-07-13T17:42:25;1.30;;;0.80;;
68144;SDS011;55400;51.824;-0.196;2023-07-13T17:45:56;0.90;;;0.80;;
68144;SDS011;55400;51.824;-0.196;2023-07-13T17:49:55;1.10;;;0.80;;
68144;SDS011;55400;51.824;-0.196;2023-07-13T17:53:55;2.20;;;0.80;;
68144;SDS011;55400;51.824;-0.196;2023-07-13T17:57:55;1.40;;;0.70;;
68144;SDS011;55400;51.824;-0.196;2023-07-13T18:01:55;2.40;;;0.90;;
68144;SDS011;55400;51.824;-0.196;2023-07-13T18:05:55;1.80;;;0.90;;
68144;SDS011;55400;51.824;-0.196;2023-07-13T18:09:55;1.10;;;0.90;;
68144;SDS011;55400;51.824;-0.196;2023-07-13T18:13:56;1.20;;;1.00;;
68144;SDS011;55400;51.824;-0.196;2023-07-13T18:17:58;0.80;;;0.80;;
68144;SDS011;55400;51.824;-0.196;2023-07-13T18:25:55;0.80;;;0.80;;
68144;SDS011;55400;51.824;-0.196;2023-07-13T18:29:55;2.30;;;1.10;;
68144;SDS011;55400;51.824;-0.196;2023-07-13T18:33:55;1.10;;;0.70;;
68144;SDS011;55400;51.824;-0.196;2023-07-13T18:37:56;0.80;;;0.80;;
68144;SDS011;55400;51.824;-0.196;2023-07-13T18:41:55;1.10;;;0.90;;
68144;SDS011;55400;51.824;-0.196;2023-07-13T18:45:58;1.00;;;0.70;;
68144;SDS011;55400;51.824;-0.196;2023-07-13T18:49:55;0.80;;;0.80;;
68144;SDS011;55400;51.824;-0.196;2023-07-13T18:53:56;0.60;;;0.50;;
68144;SDS011;55400;51.824;-0.196;2023-07-13T18:57:55;0.60;;;0.60;;
68144;SDS011;55400;51.824;-0.196;2023-07-13T19:01:55;0.50;;;0.50;;
68144;SDS011;55400;51.824;-0.196;2023-07-13T19:05:55;1.10;;;0.90;;
68144;SDS011;55400;51.824;-0.196;2023-07-13T19:09:55;0.80;;;0.70;;
68144;SDS011;55400;51.824;-0.196;2023-07-13T19:13:56;0.70;;;0.70;;
68144;SDS011;55400;51.824;-0.196;2023-07-13T19:17:56;2.80;;;0.70;;
68144;SDS011;55400;51.824;-0.196;2023-07-13T19:23:55;1.00;;;0.80;;
68144;SDS011;55400;51.824;-0.196;2023-07-13T19:27:28;unknown;;;unknown;;
68144;SDS011;55400;51.824;-0.196;2023-07-13T19:29:26;unknown;;;unknown;;
68144;SDS011;55400;51.824;-0.196;2023-07-13T19:33:25;1.40;;;0.80;;
68144;SDS011;55400;51.824;-0.196;2023-07-13T19:37:26;1.20;;;0.90;;
68144;SDS011;55400;51.824;-0.196;2023-07-13T19:41:27;1.30;;;1.00;;
68144;SDS011;55400;51.824;-0.196;2023-07-13T19:45:25;1.50;;;0.90;;
68144;SDS011;55400;51.824;-0.196;2023-07-13T19:49:25;1.50;;;1.20;;
68144;SDS011;55400;51.824;-0.196;2023-07-13T19:53:25;1.30;;;0.90;;
68144;SDS011;55400;51.824;-0.196;2023-07-13T19:57:27;2.30;;;1.10;;
68144;SDS011;55400;51.824;-0.196;2023-07-13T20:01:25;1.80;;;0.90;;
68144;SDS011;55400;51.824;-0.196;2023-07-13T20:05:25;1.10;;;0.80;;
68144;SDS011;55400;51.824;-0.196;2023-07-13T20:09:26;1.30;;;1.10;;
68144;SDS011;55400;51.824;-0.196;2023-07-13T20:13:25;1.20;;;1.10;;
68144;SDS011;55400;51.824;-0.196;2023-07-13T20:17:30;1.10;;;1.00;;
68144;SDS011;55400;51.824;-0.196;2023-07-13T20:21:25;1.70;;;1.20;;
68144;SDS011;55400;51.824;-0.196;2023-07-13T20:25:35;2.70;;;1.30;;
68144;SDS011;55400;51.824;-0.196;2023-07-13T20:30:45;1.40;;;1.30;;
68144;SDS011;55400;51.824;-0.196;2023-07-13T20:33:37;3.10;;;1.00;;
68144;SDS011;55400;51.824;-0.196;2023-07-13T20:39:21;2.00;;;1.30;;
68144;SDS011;55400;51.824;-0.196;2023-07-13T20:41:25;2.00;;;1.30;;
68144;SDS011;55400;51.824;-0.196;2023-07-13T20:45:27;2.90;;;1.40;;
68144;SDS011;55400;51.824;-0.196;2023-07-13T20:49:25;2.20;;;1.40;;
68144;SDS011;55400;51.824;-0.196;2023-07-13T20:57:25;1.60;;;1.30;;
68144;SDS011;55400;51.824;-0.196;2023-07-13T21:01:35;1.60;;;1.20;;
68144;SDS011;55400;51.824;-0.196;2023-07-13T21:05:36;1.40;;;1.10;;
68144;SDS011;55400;51.824;-0.196;2023-07-13T21:09:25;1.50;;;1.20;;
68144;SDS011;55400;51.824;-0.196;2023-07-13T21:13:25;2.70;;;1.40;;
68144;SDS011;55400;51.824;-0.196;2023-07-13T21:17:25;1.90;;;1.30;;
68144;SDS011;55400;51.824;-0.196;2023-07-13T21:21:25;2.30;;;1.30;;
68144;SDS011;55400;51.824;-0.196;2023-07-13T21:25:27;1.50;;;1.10;;
68144;SDS011;55400;51.824;-0.196;2023-07-13T21:29:25;1.40;;;1.20;;
68144;SDS011;55400;51.824;-0.196;2023-07-13T21:33:26;1.70;;;1.30;;
68144;SDS011;55400;51.824;-0.196;2023-07-13T21:37:26;1.50;;;1.10;;
68144;SDS011;55400;51.824;-0.196;2023-07-13T21:41:28;2.00;;;1.30;;
68144;SDS011;55400;51.824;-0.196;2023-07-13T21:45:27;1.40;;;1.20;;
68144;SDS011;55400;51.824;-0.196;2023-07-13T21:49:25;1.80;;;1.50;;
68144;SDS011;55400;51.824;-0.196;2023-07-13T21:53:28;2.30;;;1.40;;
68144;SDS011;55400;51.824;-0.196;2023-07-13T21:57:25;2.90;;;1.60;;
68144;SDS011;55400;51.824;-0.196;2023-07-13T22:01:31;2.60;;;1.70;;
68144;SDS011;55400;51.824;-0.196;2023-07-13T22:05:25;2.40;;;1.20;;
68144;SDS011;55400;51.824;-0.196;2023-07-13T22:09:26;2.30;;;1.30;;
68144;SDS011;55400;51.824;-0.196;2023-07-13T22:13:26;1.50;;;1.30;;
68144;SDS011;55400;51.824;-0.196;2023-07-13T22:17:26;1.30;;;1.20;;
68144;SDS011;55400;51.824;-0.196;2023-07-13T22:21:27;2.00;;;1.30;;
68144;SDS011;55400;51.824;-0.196;2023-07-13T22:25:26;1.90;;;1.20;;
68144;SDS011;55400;51.824;-0.196;2023-07-13T22:29:28;2.00;;;1.40;;
68144;SDS011;55400;51.824;-0.196;2023-07-13T22:33:26;1.80;;;1.50;;
68144;SDS011;55400;51.824;-0.196;2023-07-13T22:37:26;1.50;;;1.40;;
68144;SDS011;55400;51.824;-0.196;2023-07-13T22:45:26;1.90;;;1.30;;
68144;SDS011;55400;51.824;-0.196;2023-07-13T22:49:41;2.80;;;1.80;;
68144;SDS011;55400;51.824;-0.196;2023-07-13T22:53:55;1.40;;;1.30;;
68144;SDS011;55400;51.824;-0.196;2023-07-13T22:57:20;2.50;;;1.50;;
68144;SDS011;55400;51.824;-0.196;2023-07-13T22:57:25;2.50;;;1.50;;
68144;SDS011;55400;51.824;-0.196;2023-07-13T23:01:26;1.70;;;1.30;;
68144;SDS011;55400;51.824;-0.196;2023-07-13T23:05:26;2.30;;;1.50;;
68144;SDS011;55400;51.824;-0.196;2023-07-13T23:09:27;1.90;;;1.40;;
68144;SDS011;55400;51.824;-0.196;2023-07-13T23:13:26;2.60;;;1.40;;
68144;SDS011;55400;51.824;-0.196;2023-07-13T23:17:26;3.50;;;1.50;;
68144;SDS011;55400;51.824;-0.196;2023-07-13T23:25:28;2.20;;;1.50;;
68144;SDS011;55400;51.824;-0.196;2023-07-13T23:29:26;1.80;;;1.20;;
68144;SDS011;55400;51.824;-0.196;2023-07-13T23:33:27;1.30;;;1.20;;
68144;SDS011;55400;51.824;-0.196;2023-07-13T23:37:26;2.00;;;1.20;;
68144;SDS011;55400;51.824;-0.196;2023-07-13T23:41:26;1.90;;;1.80;;
68144;SDS011;55400;51.824;-0.196;2023-07-13T23:45:27;2.70;;;1.50;;
68144;SDS011;55400;51.824;-0.196;2023-07-13T23:49:28;2.00;;;1.40;;
68144;SDS011;55400;51.824;-0.196;2023-07-13T23:57:34;2.30;;;1.60;;
